Terminal Aerodrome Forecast
Issued by NWS Grand Forks, ND

Home | Current Version | Previous Version | Graphics & Text | Print | Product List | Glossary On
Versions: 1 2 3 4 5 6 7 8 9 10 11 12 13 14 15 16 17
000
FTUS43 KFGF 261417 AAB
TAFFAR
TAF AMD
KFAR 261417Z 2614/2712 28012KT P6SM SKC
     FM261600 28013KT P6SM SCT050
     FM270200 27009KT P6SM SCT250
     FM270400 26005KT P6SM SCT250=

USA.gov is the U.S. government's official web portal to all federal, state and local government web resources and services.